OTBD

Doha International Airport

Doha, Qatar
TAF OTBD 180652Z 1806/1912 04007KT 8000 FEW030 SCT080 TEMPO 1808/1820 10010KT 6000 SCT030 BKN080 PROB40 TEMPO 1809/1818 VRB20G30KT 2000 -TSRA BLDU FEW025CB
Issued Valid From Valid To
Oct-18 @ 06:52 UTC
(5 hours ago)
Oct-18 @ 06:00 UTC
(6 hours ago)
Oct-19 @ 12:00 UTC
(in 24 hours)
Oct-18 @ 06:00 to Oct-19 @ 12:00
TAF OTBD 180652Z 1806/1912 04007KT 8000 FEW030 SCT080
Wind Visibility Clouds
40° at 7 knots 7,998 meters
  • Few at 3,000' AGL
  • Scattered at 8,000' AGL
Temporary Oct-18 @ 08:00 to Oct-18 @ 20:00
TEMPO 1808/1820 10010KT 6000 SCT030 BKN080
Wind Visibility Clouds
100° at 10 knots 6,003 meters
  • Scattered at 3,000' AGL
  • Broken at 8,000' AGL
Temporary  (Probability 40%) Oct-18 @ 09:00 to Oct-18 @ 18:00
PROB40 TEMPO 1809/1818 VRB20G30KT 2000 -TSRA BLDU FEW025CB
Wind Visibility Clouds Conditions
Variable at 20 knots
 Gusting to 30 knots
1,996 meters
  • Few at 2,500' AGL
  • Light Thunderstorm
  • Light Rain
  • Blowing
  • Dust
TAF OTBD 180652Z 1806/1912 04007KT 8000 FEW030 SCT080 TEMPO 1808/1820 10010KT 6000 SCT030 BKN080 PROB40 TEMPO 1809/1818 VRB20G30KT 2000 -TSRA BLDU FEW025CB
Issued Oct-18 @ 06:52 UTC
(5 hours ago)
Valid From Oct-18 @ 06:00 UTC
(6 hours ago)
Valid To Oct-19 @ 12:00 UTC
(in 24 hours)
Oct-18 @ 06:00 - Oct-19 @ 12:00
Wind Visibility
40° at 7 knots 7,998 meters
Clouds
  • Few at 3,000' AGL
  • Scattered at 8,000' AGL
Temporary Oct-18 @ 08:00 - Oct-18 @ 20:00
Wind Visibility
100° at 10 knots 6,003 meters
Clouds
  • Scattered at 3,000' AGL
  • Broken at 8,000' AGL
Probability 40% Temporary Oct-18 @ 09:00 - Oct-18 @ 18:00
Wind Visibility
Variable at 20 knots
 Gusting to 30 knots
1,996 meters
Clouds
  • Few at 2,500' AGL
Conditions
  • Light Thunderstorm
  • Light Rain
  • Blowing
  • Dust